createdAt,value
2019-04-16T00:00:13.722Z,30.3
2019-04-16T00:00:59.311Z,30.2
2019-04-16T00:01:53.716Z,30.1
2019-04-16T00:02:38.389Z,30
2019-04-16T00:03:33.609Z,29.9
2019-04-16T00:04:18.069Z,29.8
2019-04-16T00:05:08.375Z,29.7
2019-04-16T00:06:04.583Z,29.6
2019-04-16T00:06:47.969Z,29.6
2019-04-16T00:07:38.644Z,29.5
2019-04-16T00:08:37.229Z,29.4
2019-04-16T00:09:18.394Z,29.3
2019-04-16T00:10:09.484Z,29.3
2019-04-16T00:10:58.459Z,29.2
2019-04-16T00:11:49.145Z,29.1
2019-04-16T00:12:38.106Z,29.1
2019-04-16T00:13:29.124Z,29
2019-04-16T00:14:17.181Z,28.9
2019-04-16T00:15:09.279Z,28.9
2019-04-16T00:15:59.215Z,28.8
2019-04-16T00:16:54.450Z,28.7
2019-04-16T00:17:39.601Z,28.6
2019-04-16T00:18:29.157Z,28.6
2019-04-16T00:19:19.447Z,28.4
2019-04-16T00:20:14.997Z,28.4
2019-04-16T00:21:00.303Z,28.3
2019-04-16T00:21:50.005Z,28.3
2019-04-16T00:22:39.680Z,28.2
2019-04-16T00:23:29.786Z,28.1
2019-04-16T00:24:25.673Z,28.1
2019-04-16T00:25:10.698Z,27.9
2019-04-16T00:26:04.965Z,27.9
2019-04-16T00:27:40.893Z,27.8
2019-04-16T00:28:35.273Z,27.7
2019-04-16T00:29:20.165Z,27.6
2019-04-16T00:30:15.352Z,27.6
2019-04-16T00:31:00.264Z,27.5
2019-04-16T00:31:50.922Z,27.4
2019-04-16T00:32:47.203Z,27.3
2019-04-16T00:33:29.407Z,27.3
2019-04-16T00:34:23.005Z,27.2
2019-04-16T00:35:16.897Z,27.1
2019-04-16T00:36:01.232Z,27.1
2019-04-16T00:36:56.502Z,27
2019-04-16T00:37:41.340Z,26.9
2019-04-16T00:38:48.507Z,26.9
2019-04-16T00:39:26.164Z,26.8
2019-04-16T00:40:10.541Z,26.8
2019-04-16T00:41:07.685Z,26.7
2019-04-16T00:41:50.363Z,26.3
2019-04-16T00:42:41.204Z,27.4
2019-04-16T00:43:30.632Z,28.7
2019-04-16T00:44:21.344Z,29.6
2019-04-16T00:45:11.940Z,30.2
2019-04-16T00:46:00.367Z,30.8
2019-04-16T00:46:51.499Z,31.2
2019-04-16T00:47:40.732Z,31.6
2019-04-16T00:48:31.691Z,31.9
2019-04-16T00:49:27.190Z,32.3
2019-04-16T00:50:12.038Z,32.6
2019-04-16T00:51:02.479Z,32.3
2019-04-16T00:51:51.921Z,32.3
2019-04-16T00:52:47.221Z,31.9
2019-04-16T00:53:31.758Z,31.4
2019-04-16T00:54:21.516Z,31.2
2019-04-16T00:55:17.736Z,30.9
2019-04-16T00:56:01.456Z,30.7
2019-04-16T00:56:56.596Z,30.6
2019-04-16T00:57:42.003Z,30.4
2019-04-16T00:58:32.321Z,30.3
2019-04-16T00:59:27.416Z,30.2
2019-04-16T01:00:13.161Z,30.1
2019-04-16T01:01:02.933Z,29.9
2019-04-16T01:01:52.248Z,29.9
2019-04-16T01:02:42.913Z,29.8
2019-04-16T01:03:32.679Z,29.7
2019-04-16T01:04:23.060Z,29.6
2019-04-16T01:05:13.127Z,29.5
2019-04-16T01:06:08.950Z,29.4
2019-04-16T01:06:52.702Z,29.4
2019-04-16T01:07:41.678Z,29.3
2019-04-16T01:08:32.824Z,29.2
2019-04-16T01:09:23.145Z,29.2
2019-04-16T01:10:13.930Z,29.1
2019-04-16T01:11:04.765Z,29
2019-04-16T01:11:58.817Z,28.9
2019-04-16T01:12:43.683Z,28.8
2019-04-16T01:13:34.945Z,28.8
2019-04-16T01:14:28.784Z,28.8
2019-04-16T01:15:13.730Z,28.6
2019-04-16T01:16:09.868Z,28.6
2019-04-16T01:16:53.397Z,28.5
2019-04-16T01:17:46.081Z,28.4
2019-04-16T01:18:32.638Z,28.4
2019-04-16T01:19:23.860Z,28.3
2019-04-16T01:20:20.504Z,28.2
2019-04-16T01:21:04.564Z,28.1
2019-04-16T01:21:54.948Z,28.1
2019-04-16T01:22:49.967Z,28
2019-04-16T01:23:34.452Z,27.9
2019-04-16T01:25:14.542Z,27.8
2019-04-16T01:26:06.864Z,27.7
2019-04-16T01:27:00.840Z,27.6
2019-04-16T01:27:44.528Z,27.6
2019-04-16T01:28:39.724Z,27.5
2019-04-16T01:29:23.999Z,27.4
2019-04-16T01:30:16.519Z,27.3
2019-04-16T01:31:11.041Z,27.3
2019-04-16T01:31:54.256Z,27.2
2019-04-16T01:32:48.796Z,27.1
2019-04-16T01:33:33.971Z,27.1
2019-04-16T01:34:28.718Z,27
2019-04-16T01:35:29.416Z,26.9
2019-04-16T01:36:05.020Z,26.9
2019-04-16T01:37:01.398Z,26.8
2019-04-16T01:37:44.391Z,26.8
2019-04-16T01:38:37.979Z,26.7
2019-04-16T01:39:28.283Z,26.2
2019-04-16T01:40:21.256Z,26.8
2019-04-16T01:41:05.530Z,28.1
2019-04-16T01:42:01.292Z,29.1
2019-04-16T01:42:45.312Z,29.9
2019-04-16T01:43:36.223Z,30.3
2019-04-16T01:44:30.701Z,30.8
2019-04-16T01:45:16.041Z,31.3
2019-04-16T01:46:12.470Z,31.6
2019-04-16T01:46:55.586Z,32
2019-04-16T01:47:47.263Z,32.3
2019-04-16T01:48:42.192Z,32.6
2019-04-16T01:49:25.805Z,32.2
2019-04-16T01:50:21.483Z,32.1
2019-04-16T01:51:06.056Z,31.7
2019-04-16T01:51:56.765Z,31.4
2019-04-16T01:52:51.582Z,31.1
2019-04-16T01:53:35.900Z,30.9
2019-04-16T01:54:31.914Z,30.7
2019-04-16T01:55:17.011Z,30.5
2019-04-16T01:56:08.455Z,30.4
2019-04-16T01:57:01.575Z,30.3
2019-04-16T01:57:46.725Z,30.1
2019-04-16T01:58:42.842Z,30
2019-04-16T01:59:27.329Z,29.9
2019-04-16T02:00:18.885Z,29.8
2019-04-16T02:01:13.790Z,29.8
2019-04-16T02:01:56.185Z,29.6
2019-04-16T02:02:52.786Z,29.6
2019-04-16T02:03:37.212Z,29.4
2019-04-16T02:04:30.002Z,29.4
2019-04-16T02:05:17.182Z,29.3
2019-04-16T02:06:07.719Z,29.3
2019-04-16T02:07:02.829Z,29.1
2019-04-16T02:07:47.096Z,29.1
2019-04-16T02:08:39.539Z,29
2019-04-16T02:09:39.627Z,28.9
2019-04-16T02:10:18.034Z,28.9
2019-04-16T02:11:14.381Z,28.8
2019-04-16T02:11:58.089Z,28.8
2019-04-16T02:12:53.719Z,28.7
2019-04-16T02:13:37.554Z,28.6
2019-04-16T02:14:31.217Z,28.5
2019-04-16T02:15:23.941Z,28.4
2019-04-16T02:16:09.202Z,28.4
2019-04-16T02:17:04.829Z,28.3
2019-04-16T02:17:47.886Z,28.2
2019-04-16T02:18:40.593Z,28.2
2019-04-16T02:19:33.601Z,28.1
2019-04-16T02:20:18.934Z,28
2019-04-16T02:21:14.686Z,27.9
2019-04-16T02:21:57.904Z,27.9
2019-04-16T02:23:38.832Z,27.8
2019-04-16T02:24:28.680Z,27.6
2019-04-16T02:25:24.213Z,27.6
2019-04-16T02:26:08.773Z,27.5
2019-04-16T02:27:04.713Z,27.4
2019-04-16T02:27:48.662Z,27.4
2019-04-16T02:28:38.193Z,27.3
2019-04-16T02:29:33.841Z,27.3
2019-04-16T02:30:18.319Z,27.2
2019-04-16T02:31:20.163Z,27.1
2019-04-16T02:32:01.784Z,27
2019-04-16T02:32:49.561Z,26.9
2019-04-16T02:33:40.131Z,26.9
2019-04-16T02:34:29.720Z,26.8
2019-04-16T02:35:18.848Z,26.8
2019-04-16T02:36:10.177Z,26.7
2019-04-16T02:37:08.852Z,26.6
2019-04-16T02:37:49.905Z,26.3
2019-04-16T02:38:54.762Z,27.4
2019-04-16T02:39:58.218Z,28.9
2019-04-16T02:40:27.825Z,29.8
2019-04-16T02:41:10.875Z,30.1
2019-04-16T02:42:09.262Z,30.6
2019-04-16T02:42:49.948Z,31.1
2019-04-16T02:43:49.575Z,31.4
2019-04-16T02:44:30.273Z,31.8
2019-04-16T02:45:28.588Z,32.1
2019-04-16T02:46:11.821Z,32.4
2019-04-16T02:47:11.301Z,32.6
2019-04-16T02:47:52.778Z,32.1
2019-04-16T02:48:40.542Z,31.9
2019-04-16T02:49:33.968Z,31.5
2019-04-16T02:50:20.832Z,31.2
2019-04-16T02:51:18.735Z,31
2019-04-16T02:52:00.000Z,30.8
2019-04-16T02:53:00.120Z,30.6
2019-04-16T02:53:40.688Z,30.4
2019-04-16T02:54:40.372Z,30.3
2019-04-16T02:55:21.957Z,30.1
2019-04-16T02:56:20.250Z,30.1
2019-04-16T02:57:02.526Z,29.9
2019-04-16T02:57:51.555Z,29.8
2019-04-16T02:58:44.791Z,29.8
2019-04-16T02:59:30.786Z,29.7
2019-04-16T03:00:25.969Z,29.6
2019-04-16T03:01:11.576Z,29.5
2019-04-16T03:02:01.492Z,29.4
2019-04-16T03:02:56.189Z,29.3
2019-04-16T03:03:41.411Z,29.3
2019-04-16T03:07:12.998Z,28.9
2019-04-16T03:07:55.729Z,28.9
2019-04-16T03:08:45.652Z,28.8
2019-04-16T03:09:42.734Z,28.8
2019-04-16T03:10:27.236Z,28.7
2019-04-16T03:11:24.148Z,28.6
2019-04-16T03:12:06.983Z,28.5
2019-04-16T03:13:03.293Z,28.4
2019-04-16T03:13:47.499Z,28.4
2019-04-16T03:14:39.868Z,28.3
2019-04-16T03:15:25.488Z,28.3
2019-04-16T03:16:18.198Z,28.2
2019-04-16T03:17:15.763Z,28.1
2019-04-16T03:17:57.541Z,28
2019-04-16T03:18:53.658Z,27.9
2019-04-16T03:19:40.821Z,27.9
2019-04-16T03:21:17.645Z,27.7
2019-04-16T03:22:13.883Z,27.6
2019-04-16T03:22:56.790Z,27.6
2019-04-16T03:23:47.680Z,27.5
2019-04-16T03:24:42.547Z,27.4
2019-04-16T03:25:27.598Z,27.4
2019-04-16T03:26:23.553Z,27.3
2019-04-16T03:27:12.737Z,27.2
2019-04-16T03:28:03.515Z,27.2
2019-04-16T03:28:48.145Z,27.1
2019-04-16T03:29:41.482Z,27
2019-04-16T03:30:28.080Z,26.9
2019-04-16T03:31:32.821Z,26.9
2019-04-16T03:32:18.241Z,26.8
2019-04-16T03:32:59.232Z,26.8
2019-04-16T03:33:59.272Z,26.7
2019-04-16T03:34:38.744Z,26.1
2019-04-16T03:35:34.977Z,26.9
2019-04-16T03:36:19.317Z,28.2
2019-04-16T03:37:11.764Z,29.1
2019-04-16T03:38:01.554Z,29.9
2019-04-16T03:38:52.237Z,30.4
2019-04-16T03:39:44.979Z,30.8
2019-04-16T03:40:35.156Z,31.2
2019-04-16T03:41:19.829Z,31.5
2019-04-16T03:42:10.367Z,31.8
2019-04-16T03:43:10.724Z,32.1
2019-04-16T03:43:48.336Z,32.5
2019-04-16T03:44:44.954Z,32.6
2019-04-16T03:45:29.399Z,32.1
2019-04-16T03:46:23.419Z,31.9
2019-04-16T03:47:09.470Z,31.7
2019-04-16T03:48:01.831Z,31.6
2019-04-16T03:48:49.499Z,31.4
2019-04-16T03:49:38.487Z,31.2
2019-04-16T03:50:35.596Z,31.1
2019-04-16T03:51:20.416Z,30.9
2019-04-16T03:52:17.178Z,30.8
2019-04-16T03:52:59.909Z,30.7
2019-04-16T03:53:56.348Z,30.6
2019-04-16T03:54:39.104Z,30.4
2019-04-16T03:55:35.824Z,30.4
2019-04-16T03:56:20.528Z,30.3
2019-04-16T03:57:13.128Z,30.2
2019-04-16T03:58:07.795Z,30.1
2019-04-16T03:58:50.565Z,30
2019-04-16T03:59:44.183Z,29.9
2019-04-16T04:00:29.910Z,29.8
2019-04-16T04:01:25.488Z,29.7
2019-04-16T04:02:11.688Z,29.6
2019-04-16T04:03:04.246Z,29.5
2019-04-16T04:03:50.308Z,29.4
2019-04-16T04:04:41.002Z,29.4
2019-04-16T04:05:30.984Z,29.3
2019-04-16T04:06:21.605Z,29.2
2019-04-16T04:07:18.102Z,29.1
2019-04-16T04:08:04.850Z,29
2019-04-16T04:09:00.705Z,28.9
2019-04-16T04:09:40.749Z,28.9
2019-04-16T04:10:47.013Z,28.8
2019-04-16T04:11:21.305Z,28.7
2019-04-16T04:12:18.308Z,28.6
2019-04-16T04:13:00.785Z,28.5
2019-04-16T04:13:56.590Z,28.5
2019-04-16T04:14:42.242Z,28.4
2019-04-16T04:15:36.888Z,28.3
2019-04-16T04:16:22.857Z,28.3
2019-04-16T04:17:18.378Z,28.2
2019-04-16T04:18:01.392Z,28.1
2019-04-16T04:18:53.353Z,28
2019-04-16T04:19:46.118Z,27.9
2019-04-16T04:21:28.181Z,27.8
2019-04-16T04:22:11.742Z,27.7
2019-04-16T04:23:07.710Z,27.6
2019-04-16T04:23:52.072Z,27.6
2019-04-16T04:24:40.560Z,27.4
2019-04-16T04:25:37.623Z,27.4
2019-04-16T04:26:22.289Z,27.3
2019-04-16T04:27:23.332Z,27.3
2019-04-16T04:28:02.154Z,27.1
2019-04-16T04:28:58.679Z,27.1
2019-04-16T04:29:42.504Z,27
2019-04-16T04:30:39.546Z,26.9
2019-04-16T04:31:22.141Z,26.4
2019-04-16T04:32:13.691Z,27.4
2019-04-16T04:33:09.811Z,28.6
2019-04-16T04:33:53.231Z,29.6
2019-04-16T04:34:50.163Z,30.1
2019-04-16T04:35:33.539Z,30.6
2019-04-16T04:36:35.248Z,31
2019-04-16T04:37:12.959Z,31.4
2019-04-16T04:38:10.422Z,31.6
2019-04-16T04:38:53.154Z,32
2019-04-16T04:39:49.413Z,32.3
2019-04-16T04:40:54.963Z,32.6
2019-04-16T04:41:30.245Z,32.2
2019-04-16T04:42:18.610Z,32.1
2019-04-16T04:43:10.934Z,31.8
2019-04-16T04:43:54.839Z,31.6
2019-04-16T04:44:49.976Z,31.4
2019-04-16T04:45:34.193Z,31.2
2019-04-16T04:46:25.853Z,31.1
2019-04-16T04:47:21.375Z,30.9
2019-04-16T04:48:03.267Z,30.7
2019-04-16T04:49:03.536Z,30.6
2019-04-16T04:49:43.403Z,30.4
2019-04-16T04:50:39.450Z,30.3
2019-04-16T04:51:24.478Z,30.1
2019-04-16T04:52:21.172Z,30.1
2019-04-16T04:53:04.692Z,29.9
2019-04-16T04:54:00.703Z,29.8
2019-04-16T04:54:43.722Z,29.7
2019-04-16T04:55:35.338Z,29.6
2019-04-16T04:56:34.697Z,29.4
2019-04-16T04:57:14.828Z,29.3
2019-04-16T04:58:09.843Z,29.3
2019-04-16T04:58:54.302Z,29.1
2019-04-16T04:59:46.238Z,29.1
2019-04-16T05:00:34.195Z,29
2019-04-16T05:01:24.331Z,28.9
2019-04-16T05:02:21.159Z,28.8
2019-04-16T05:03:03.483Z,28.7
2019-04-16T05:03:58.149Z,28.6
2019-04-16T05:04:44.745Z,28.5
2019-04-16T05:05:36.002Z,28.4
2019-04-16T05:06:31.616Z,28.3
2019-04-16T05:07:14.672Z,28.3
2019-04-16T05:08:09.952Z,28.1
2019-04-16T05:08:54.607Z,28.1
2019-04-16T05:09:47.154Z,27.9
2019-04-16T05:10:52.690Z,27.9
2019-04-16T05:11:26.975Z,27.8
2019-04-16T05:12:25.337Z,27.8
2019-04-16T05:13:05.066Z,27.6
2019-04-16T05:14:01.311Z,27.6
2019-04-16T05:14:45.759Z,27.5
2019-04-16T05:15:39.400Z,27.4
2019-04-16T05:16:25.869Z,27.3
2019-04-16T05:17:17.774Z,27.3
2019-04-16T05:18:13.766Z,27.2
2019-04-16T05:18:55.029Z,27.1
2019-04-16T05:19:49.588Z,27
2019-04-16T05:20:39.891Z,26.9
2019-04-16T05:21:28.950Z,26.9
2019-04-16T05:22:23.068Z,26.8
2019-04-16T05:23:07.671Z,26.7
2019-04-16T05:24:02.518Z,26.7
2019-04-16T05:24:48.191Z,26.6
2019-04-16T05:25:42.762Z,26.5
2019-04-16T05:26:27.511Z,26.3
2019-04-16T05:27:19.538Z,26.1
2019-04-16T05:28:11.554Z,27.5
2019-04-16T05:28:57.039Z,28.8
2019-04-16T05:29:51.828Z,29.8
2019-04-16T05:30:36.601Z,30.8
2019-04-16T05:31:36.344Z,31.2
2019-04-16T05:32:17.728Z,31.5
2019-04-16T05:33:13.188Z,31.7
2019-04-16T05:34:07.503Z,31.9
2019-04-16T05:34:48.034Z,32.2
2019-04-16T05:35:42.905Z,32.4
2019-04-16T05:36:31.884Z,32.1
2019-04-16T05:37:24.200Z,32.1
2019-04-16T05:38:07.138Z,32.1
2019-04-16T05:39:06.408Z,32
2019-04-16T05:39:47.796Z,31.9
2019-04-16T05:40:44.928Z,31.8
2019-04-16T05:41:31.931Z,31.6
2019-04-16T05:42:18.355Z,31.4
2019-04-16T05:43:08.702Z,31.3
2019-04-16T05:44:03.583Z,31.1
2019-04-16T05:44:47.924Z,30.9
2019-04-16T05:45:44.172Z,30.9
2019-04-16T05:46:27.947Z,30.7
2019-04-16T05:47:24.227Z,30.6
2019-04-16T05:48:08.037Z,30.4
2019-04-16T05:49:04.005Z,30.3
2019-04-16T05:49:47.997Z,30.1
2019-04-16T05:50:39.439Z,30.1
2019-04-16T05:51:34.298Z,29.9
2019-04-16T05:52:19.677Z,29.8
2019-04-16T05:53:19.359Z,29.7
2019-04-16T05:53:58.307Z,29.6
2019-04-16T05:54:54.877Z,29.5
2019-04-16T05:55:38.700Z,29.4
2019-04-16T05:56:33.525Z,29.3
2019-04-16T05:57:18.755Z,29.2
2019-04-16T05:58:09.509Z,29.1
2019-04-16T05:59:04.816Z,29
2019-04-16T05:59:49.526Z,28.9
2019-04-16T06:00:45.751Z,28.8
2019-04-16T06:01:29.727Z,28.7
2019-04-16T06:02:27.689Z,28.6
2019-04-16T06:05:06.786Z,28.3
2019-04-16T06:06:01.969Z,28.2
2019-04-16T06:06:46.408Z,28.1
2019-04-16T06:07:42.679Z,28
2019-04-16T06:08:26.771Z,27.9
2019-04-16T06:10:16.242Z,27.7
2019-04-16T06:11:04.368Z,27.6
2019-04-16T06:11:47.767Z,27.6
2019-04-16T06:12:46.007Z,27.4
2019-04-16T06:13:27.766Z,27.4
2019-04-16T06:14:29.175Z,27.3
2019-04-16T06:15:07.241Z,27.2
2019-04-16T06:16:02.395Z,27.1
2019-04-16T06:16:46.801Z,27
2019-04-16T06:17:42.305Z,26.9
2019-04-16T06:18:27.241Z,26.9
2019-04-16T06:19:21.630Z,26.8
2019-04-16T06:20:07.340Z,26.7
2019-04-16T06:21:02.188Z,26.4
2019-04-16T06:21:47.503Z,26.7
2019-04-16T06:22:39.498Z,27.9
2019-04-16T06:23:32.794Z,29.1
2019-04-16T06:24:18.276Z,30.4
2019-04-16T06:25:19.344Z,30.9
2019-04-16T06:25:58.669Z,31.4
2019-04-16T06:26:53.802Z,31.6
2019-04-16T06:27:38.497Z,31.9
2019-04-16T06:28:28.440Z,32.1
2019-04-16T06:29:18.218Z,32.4
2019-04-16T06:30:12.625Z,32.7
2019-04-16T06:30:57.899Z,32.2
2019-04-16T06:31:49.472Z,32.2
2019-04-16T06:32:38.213Z,32.1
2019-04-16T06:33:29.198Z,32
2019-04-16T06:34:18.353Z,31.9
2019-04-16T06:35:08.534Z,31.8
2019-04-16T06:35:58.337Z,31.6
2019-04-16T06:36:49.207Z,31.4
2019-04-16T06:37:39.227Z,31.3
2019-04-16T06:38:28.521Z,31.1
2019-04-16T06:39:19.487Z,30.9
2019-04-16T06:40:11.716Z,30.8
2019-04-16T06:41:04.507Z,30.7
2019-04-16T06:42:00.812Z,30.6
2019-04-16T06:42:42.005Z,30.4
2019-04-16T06:43:36.381Z,30.3
2019-04-16T06:44:20.039Z,30.2
2019-04-16T06:45:14.877Z,30.1
2019-04-16T06:45:58.997Z,29.9
2019-04-16T06:46:50.286Z,29.8
2019-04-16T06:47:44.332Z,29.8
2019-04-16T06:48:29.909Z,29.6
2019-04-16T06:49:27.090Z,29.5
2019-04-16T06:50:10.321Z,29.4
2019-04-16T06:50:59.159Z,29.3
2019-04-16T06:51:53.840Z,29.2
2019-04-16T06:52:39.782Z,29.1
2019-04-16T06:53:38.405Z,29
2019-04-16T06:54:25.097Z,28.9
2019-04-16T06:55:13.454Z,28.8
2019-04-16T06:56:00.034Z,28.7
2019-04-16T06:56:53.171Z,28.6
2019-04-16T06:57:45.611Z,28.5
2019-04-16T06:59:00.615Z,28.4
2019-04-16T06:59:31.245Z,28.3
2019-04-16T07:00:17.216Z,28.3
2019-04-16T07:01:05.556Z,28.1
2019-04-16T07:01:52.343Z,28.1
2019-04-16T07:05:11.564Z,27.7
2019-04-16T07:05:57.209Z,27.6
2019-04-16T07:06:50.422Z,27.6
2019-04-16T07:07:54.291Z,27.4
2019-04-16T07:08:52.520Z,27.4
2019-04-16T07:09:15.482Z,27.3
2019-04-16T07:10:06.652Z,27.3
2019-04-16T07:10:56.064Z,27.2
2019-04-16T07:12:00.702Z,27.1
2019-04-16T07:12:43.922Z,26.9
2019-04-16T07:13:27.355Z,26.9
2019-04-16T07:14:25.261Z,26.8
2019-04-16T07:15:06.874Z,26.3
2019-04-16T07:16:02.790Z,27.2
2019-04-16T07:16:47.946Z,28.6
2019-04-16T07:17:46.995Z,29.8
2019-04-16T07:18:31.585Z,30.8
2019-04-16T07:19:24.540Z,31.2
2019-04-16T07:20:18.002Z,31.6
2019-04-16T07:20:57.419Z,31.8
2019-04-16T07:21:53.117Z,32.1
2019-04-16T07:22:37.429Z,32.4
2019-04-16T07:23:35.832Z,32.6
2019-04-16T07:24:25.265Z,32.2
2019-04-16T07:25:26.415Z,32.3
2019-04-16T07:26:06.172Z,32.2
2019-04-16T07:27:04.277Z,32.1
2019-04-16T07:27:59.669Z,31.9
2019-04-16T07:28:37.606Z,31.8
2019-04-16T07:29:22.150Z,31.8
2019-04-16T07:30:26.299Z,31.6
2019-04-16T07:31:01.548Z,31.4
2019-04-16T07:31:55.643Z,31.3
2019-04-16T07:32:39.239Z,31.2
2019-04-16T07:33:29.288Z,31.1
2019-04-16T07:34:17.994Z,30.9
2019-04-16T07:35:09.052Z,30.8
2019-04-16T07:35:59.619Z,30.7
2019-04-16T07:36:48.829Z,30.6
2019-04-16T07:37:42.838Z,30.5
2019-04-16T07:38:28.380Z,30.4
2019-04-16T07:39:46.954Z,30.3
2019-04-16T07:40:16.336Z,30.1
2019-04-16T07:41:00.021Z,30
2019-04-16T07:41:53.133Z,29.9
2019-04-16T07:43:50.991Z,29.8
2019-04-16T07:44:16.206Z,29.6
2019-04-16T07:44:56.733Z,29.5
2019-04-16T07:45:42.260Z,29.4
2019-04-16T07:46:51.205Z,29.3
2019-04-16T07:47:27.969Z,29.2
2019-04-16T07:48:16.444Z,29.1
2019-04-16T07:49:06.388Z,29.1
2019-04-16T07:50:08.752Z,28.9
2019-04-16T07:50:42.735Z,28.8
2019-04-16T07:51:38.220Z,28.8
2019-04-16T07:52:23.210Z,28.7
2019-04-16T07:53:19.197Z,28.6
2019-04-16T07:54:08.075Z,28.4
2019-04-16T07:54:52.350Z,28.4
2019-04-16T07:55:42.736Z,28.3
2019-04-16T07:56:33.327Z,28.2
2019-04-16T07:57:23.127Z,28.1
2019-04-16T07:58:13.762Z,28.1
2019-04-16T07:59:09.989Z,27.9
2019-04-16T07:59:53.617Z,27.9
2019-04-16T08:01:33.144Z,27.7
2019-04-16T08:02:31.307Z,27.6
2019-04-16T08:03:15.470Z,27.6
2019-04-16T08:04:13.237Z,27.4
2019-04-16T08:04:54.018Z,27.4
2019-04-16T08:05:49.809Z,27.3
2019-04-16T08:06:34.330Z,27.2
2019-04-16T08:07:29.249Z,27.1
2019-04-16T08:08:14.912Z,27.1
2019-04-16T08:09:08.232Z,26.9
2019-04-16T08:09:54.197Z,26.8
2019-04-16T08:10:44.194Z,28.1
2019-04-16T08:11:33.667Z,29.3
2019-04-16T08:12:42.396Z,30.6
2019-04-16T08:13:17.451Z,31.4
2019-04-16T08:14:15.977Z,31.6
2019-04-16T08:14:54.681Z,31.9
2019-04-16T08:15:45.496Z,32.1
2019-04-16T08:16:50.691Z,32.4
2019-04-16T08:17:25.196Z,32.8
2019-04-16T08:18:14.700Z,32.3
2019-04-16T08:19:05.261Z,32.3
2019-04-16T08:20:03.677Z,32.3
2019-04-16T08:20:43.990Z,32.2
2019-04-16T08:21:35.207Z,32.1
2019-04-16T08:22:28.553Z,31.9
2019-04-16T08:23:21.247Z,31.8
2019-04-16T08:24:05.715Z,31.7
2019-04-16T08:25:06.393Z,31.6
2019-04-16T08:25:44.345Z,31.4
2019-04-16T08:26:35.381Z,31.3
2019-04-16T08:27:28.620Z,31.1
2019-04-16T08:28:16.692Z,31.1
2019-04-16T08:29:07.275Z,30.9
2019-04-16T08:29:54.127Z,30.8
2019-04-16T08:30:49.490Z,30.7
2019-04-16T08:31:37.020Z,30.6
2019-04-16T08:32:29.577Z,30.4
2019-04-16T08:33:19.644Z,30.3
2019-04-16T08:34:05.730Z,30.2
2019-04-16T08:34:54.881Z,30.1
2019-04-16T08:35:46.207Z,30
2019-04-16T08:36:35.673Z,29.9
2019-04-16T08:37:26.015Z,29.8
2019-04-16T08:38:15.531Z,29.7
2019-04-16T08:39:12.696Z,29.6
2019-04-16T08:39:55.562Z,29.5
2019-04-16T08:40:51.404Z,29.4
2019-04-16T08:41:36.599Z,29.3
2019-04-16T08:42:51.096Z,29.2
2019-04-16T08:43:16.402Z,29.1
2019-04-16T08:44:17.509Z,29
2019-04-16T08:44:56.659Z,28.9
2019-04-16T08:45:49.139Z,28.8
2019-04-16T08:46:41.786Z,28.8
2019-04-16T08:47:27.536Z,28.6
2019-04-16T08:48:26.132Z,28.6
2019-04-16T08:49:06.843Z,28.4
2019-04-16T08:50:04.158Z,28.4
2019-04-16T08:50:49.736Z,28.3
2019-04-16T08:51:46.226Z,28.2
2019-04-16T08:52:27.139Z,28.1
2019-04-16T08:53:23.211Z,28
2019-04-16T08:54:07.274Z,27.9
2019-04-16T08:55:04.110Z,27.9
2019-04-16T08:55:47.398Z,27.8
2019-04-16T08:56:37.753Z,27.7
2019-04-16T08:57:26.165Z,27.6
2019-04-16T08:58:21.558Z,27.5
2019-04-16T08:59:31.938Z,27.4
2019-04-16T08:59:57.101Z,27.4
2019-04-16T09:00:53.926Z,27.3
2019-04-16T09:01:37.215Z,27.2
2019-04-16T09:02:33.708Z,27.1
2019-04-16T09:03:21.173Z,26.7
2019-04-16T09:04:11.937Z,27.5
2019-04-16T09:04:56.885Z,28.9
2019-04-16T09:05:51.424Z,30.2
2019-04-16T09:06:37.620Z,31
2019-04-16T09:07:31.484Z,31.4
2019-04-16T09:08:29.243Z,31.8
2019-04-16T09:09:34.057Z,32.1
2019-04-16T09:10:33.292Z,32.6
2019-04-16T09:10:52.150Z,32.6
2019-04-16T09:11:44.190Z,32.3
2019-04-16T09:12:31.183Z,32.3
2019-04-16T09:13:22.366Z,32.3
2019-04-16T09:14:09.125Z,32.1
2019-04-16T09:15:06.392Z,32.1
2019-04-16T09:16:04.114Z,31.9
2019-04-16T09:16:38.352Z,31.8
2019-04-16T09:17:27.547Z,31.6
2019-04-16T09:18:19.290Z,31.5
2019-04-16T09:19:09.854Z,31.4
2019-04-16T09:20:05.108Z,31.3
2019-04-16T09:20:48.339Z,31.1
2019-04-16T09:21:45.121Z,31
2019-04-16T09:22:30.108Z,30.9
2019-04-16T09:23:26.570Z,30.8
2019-04-16T09:24:19.248Z,30.6
2019-04-16T09:25:00.644Z,30.5
2019-04-16T09:26:10.947Z,30.4
2019-04-16T09:27:01.517Z,30.3
2019-04-16T09:27:39.986Z,30.1
2019-04-16T09:28:39.501Z,30.1
2019-04-16T09:29:19.731Z,29.9
2019-04-16T09:29:59.664Z,29.9
2019-04-16T09:30:56.873Z,29.8
2019-04-16T09:31:39.456Z,29.7
2019-04-16T09:32:36.058Z,29.6
2019-04-16T09:33:18.959Z,29.5
2019-04-16T09:34:15.521Z,29.4
2019-04-16T09:35:25.642Z,29.3
2019-04-16T09:35:53.983Z,29.2
2019-04-16T09:36:40.371Z,29.1
2019-04-16T09:37:40.365Z,29.1
2019-04-16T09:38:37.476Z,28.9
2019-04-16T09:39:11.924Z,28.8
2019-04-16T09:40:01.192Z,28.8
2019-04-16T09:40:54.489Z,28.6
2019-04-16T09:41:40.713Z,28.6
2019-04-16T09:42:31.667Z,28.5
2019-04-16T09:43:28.523Z,28.4
2019-04-16T09:44:10.388Z,28.3
2019-04-16T09:45:06.873Z,28.3
2019-04-16T09:45:51.660Z,28.1
2019-04-16T09:47:11.667Z,28.1
2019-04-16T09:47:38.252Z,27.9
2019-04-16T09:48:20.914Z,27.9
2019-04-16T09:50:00.475Z,27.8
2019-04-16T09:50:58.254Z,27.7
2019-04-16T09:51:41.441Z,27.6
2019-04-16T09:52:34.154Z,27.5
2019-04-16T09:53:43.492Z,27.4
2019-04-16T09:54:18.600Z,27.3
2019-04-16T09:55:01.140Z,27.3
2019-04-16T09:55:58.858Z,27.2
2019-04-16T09:56:42.112Z,27.1
2019-04-16T09:57:40.069Z,26.9
2019-04-16T09:58:26.827Z,27.1
2019-04-16T09:59:20.260Z,28.5
2019-04-16T10:00:02.405Z,29.8
2019-04-16T10:00:55.018Z,30.3
2019-04-16T10:01:42.502Z,30.9
2019-04-16T10:02:32.717Z,31.4
2019-04-16T10:03:23.255Z,31.9
2019-04-16T10:06:09.869Z,33.1
2019-04-16T10:06:56.968Z,32.6
2019-04-16T10:07:49.836Z,32.3
2019-04-16T10:08:45.665Z,31.8
2019-04-16T10:09:32.203Z,31.5
2019-04-16T10:10:18.076Z,31.3
2019-04-16T10:11:20.035Z,31.1
2019-04-16T10:12:00.773Z,30.9
2019-04-16T10:12:47.480Z,30.8
2019-04-16T10:13:45.346Z,30.6
2019-04-16T10:14:27.430Z,30.4
2019-04-16T10:15:17.570Z,30.3
2019-04-16T10:16:06.516Z,30.3
2019-04-16T10:16:57.452Z,30.1
2019-04-16T10:17:47.471Z,30.1
2019-04-16T10:18:44.473Z,29.9
2019-04-16T10:19:31.295Z,29.8
2019-04-16T10:20:18.132Z,29.8
2019-04-16T10:21:07.631Z,29.7
2019-04-16T10:22:03.990Z,29.6
2019-04-16T10:22:47.080Z,29.5
2019-04-16T10:23:38.230Z,29.4
2019-04-16T10:24:28.568Z,29.4
2019-04-16T10:25:18.275Z,29.3
2019-04-16T10:26:07.575Z,29.2
2019-04-16T10:27:07.446Z,29.1
2019-04-16T10:27:48.247Z,29
2019-04-16T10:28:44.144Z,28.9
2019-04-16T10:29:29.022Z,28.9
2019-04-16T10:30:18.925Z,28.8
2019-04-16T10:31:08.340Z,28.8
2019-04-16T10:31:59.087Z,28.6
2019-04-16T10:32:49.045Z,28.6
2019-04-16T10:33:38.345Z,28.5
2019-04-16T10:34:29.429Z,28.4
2019-04-16T10:35:19.549Z,28.3
2019-04-16T10:36:16.326Z,28.3
2019-04-16T10:36:58.878Z,28.1
2019-04-16T10:37:48.703Z,28.1
2019-04-16T10:38:38.632Z,28.1
2019-04-16T10:39:29.884Z,27.9
2019-04-16T10:40:20.063Z,27.9
2019-04-16T10:42:02.031Z,27.8
2019-04-16T10:42:49.557Z,27.6
2019-04-16T10:43:53.282Z,27.6
2019-04-16T10:44:28.715Z,27.4
2019-04-16T10:45:20.013Z,27.4
2019-04-16T10:46:12.753Z,27.4
2019-04-16T10:47:00.307Z,27.3
2019-04-16T10:47:50.124Z,27.2
2019-04-16T10:48:39.967Z,27.1
2019-04-16T10:49:29.417Z,27.1
2019-04-16T10:50:18.331Z,27
2019-04-16T10:51:16.260Z,26.9
2019-04-16T10:52:00.421Z,26.8
2019-04-16T10:52:57.829Z,26.8
2019-04-16T10:53:38.791Z,26.7
2019-04-16T10:54:29.540Z,26.4
2019-04-16T10:56:10.296Z,29.3
2019-04-16T10:57:10.831Z,30.1
2019-04-16T10:57:50.768Z,30.9
2019-04-16T10:58:40.716Z,31.3
2019-04-16T10:59:30.326Z,31.8
2019-04-16T11:00:20.448Z,32.3
2019-04-16T11:01:10.925Z,32.7
2019-04-16T11:02:00.830Z,33.1
2019-04-16T11:02:50.521Z,32.6
2019-04-16T11:03:44.565Z,32.4
2019-04-16T11:04:31.280Z,31.9
2019-04-16T11:05:28.874Z,31.6
2019-04-16T11:06:11.330Z,31.3
2019-04-16T11:07:01.230Z,31.1
2019-04-16T11:07:52.195Z,30.9
2019-04-16T11:08:42.393Z,30.8
2019-04-16T11:09:31.379Z,30.6
2019-04-16T11:10:22.525Z,30.4
2019-04-16T11:11:11.095Z,30.3
2019-04-16T11:12:06.308Z,30.2
2019-04-16T11:12:52.080Z,30.1
2019-04-16T11:13:41.371Z,30
2019-04-16T11:14:31.937Z,29.9
2019-04-16T11:15:21.362Z,29.8
2019-04-16T11:16:11.178Z,29.8
2019-04-16T11:17:01.781Z,29.6
2019-04-16T11:17:51.919Z,29.6
2019-04-16T11:18:40.850Z,29.5
2019-04-16T11:19:31.296Z,29.4
2019-04-16T11:20:21.631Z,29.3
2019-04-16T11:21:12.522Z,29.3
2019-04-16T11:22:10.165Z,29.2
2019-04-16T11:22:52.087Z,29.1
2019-04-16T11:23:42.208Z,29
2019-04-16T11:24:33.063Z,28.9
2019-04-16T11:25:22.812Z,28.9
2019-04-16T11:26:12.609Z,28.8